sensor_id;sensor_type;location;lat;lon;timestamp;temperature;humidity
11067;DHT22;29763;50.904;5.530;2023-04-01T00:01:50;9.70;99.90
11067;DHT22;29763;50.904;5.530;2023-04-01T00:04:16;9.70;99.90
11067;DHT22;29763;50.904;5.530;2023-04-01T00:06:42;9.70;99.90
11067;DHT22;29763;50.904;5.530;2023-04-01T00:09:08;9.70;99.90
11067;DHT22;29763;50.904;5.530;2023-04-01T00:11:33;9.70;99.90
11067;DHT22;29763;50.904;5.530;2023-04-01T00:13:59;9.70;99.90
11067;DHT22;29763;50.904;5.530;2023-04-01T00:16:25;9.70;99.90
11067;DHT22;29763;50.904;5.530;2023-04-01T00:18:51;9.70;99.90
11067;DHT22;29763;50.904;5.530;2023-04-01T00:21:18;9.70;99.90
11067;DHT22;29763;50.904;5.530;2023-04-01T00:23:44;9.70;99.90
11067;DHT22;29763;50.904;5.530;2023-04-01T00:26:10;9.70;99.90
11067;DHT22;29763;50.904;5.530;2023-04-01T00:28:37;9.60;99.90
11067;DHT22;29763;50.904;5.530;2023-04-01T00:31:08;9.60;99.90
11067;DHT22;29763;50.904;5.530;2023-04-01T00:33:34;9.70;99.90
11067;DHT22;29763;50.904;5.530;2023-04-01T00:36:11;9.70;99.90
11067;DHT22;29763;50.904;5.530;2023-04-01T00:38:38;9.70;99.90
11067;DHT22;29763;50.904;5.530;2023-04-01T00:41:04;9.70;99.90
11067;DHT22;29763;50.904;5.530;2023-04-01T00:43:30;9.70;99.90
11067;DHT22;29763;50.904;5.530;2023-04-01T00:45:57;9.70;99.90
11067;DHT22;29763;50.904;5.530;2023-04-01T00:48:27;9.70;99.90
11067;DHT22;29763;50.904;5.530;2023-04-01T00:51:09;9.70;99.90
11067;DHT22;29763;50.904;5.530;2023-04-01T00:53:41;9.70;99.90
11067;DHT22;29763;50.904;5.530;2023-04-01T00:56:14;9.70;99.90
11067;DHT22;29763;50.904;5.530;2023-04-01T00:58:48;9.70;99.90
11067;DHT22;29763;50.904;5.530;2023-04-01T01:01:15;9.70;99.90
11067;DHT22;29763;50.904;5.530;2023-04-01T01:03:41;9.70;99.90
11067;DHT22;29763;50.904;5.530;2023-04-01T01:11:48;9.70;99.90
11067;DHT22;29763;50.904;5.530;2023-04-01T01:14:40;9.70;99.90
11067;DHT22;29763;50.904;5.530;2023-04-01T01:20:42;9.70;99.90
11067;DHT22;29763;50.904;5.530;2023-04-01T01:26:20;9.70;99.90
11067;DHT22;29763;50.904;5.530;2023-04-01T01:34:34;9.70;99.90
11067;DHT22;29763;50.904;5.530;2023-04-01T01:37:05;9.70;99.90
11067;DHT22;29763;50.904;5.530;2023-04-01T01:39:34;9.70;99.90
11067;DHT22;29763;50.904;5.530;2023-04-01T01:42:04;9.70;99.90
11067;DHT22;29763;50.904;5.530;2023-04-01T01:44:32;9.60;99.90
11067;DHT22;29763;50.904;5.530;2023-04-01T01:46:59;9.60;99.90
11067;DHT22;29763;50.904;5.530;2023-04-01T01:49:27;9.60;99.90
11067;DHT22;29763;50.904;5.530;2023-04-01T01:51:56;9.60;99.90
11067;DHT22;29763;50.904;5.530;2023-04-01T01:54:22;9.60;99.90
11067;DHT22;29763;50.904;5.530;2023-04-01T01:56:51;9.60;99.90
11067;DHT22;29763;50.904;5.530;2023-04-01T01:59:20;9.60;99.90
11067;DHT22;29763;50.904;5.530;2023-04-01T02:01:52;9.60;99.90
11067;DHT22;29763;50.904;5.530;2023-04-01T02:04:21;9.60;99.90
11067;DHT22;29763;50.904;5.530;2023-04-01T02:07:01;9.60;99.90
11067;DHT22;29763;50.904;5.530;2023-04-01T02:09:28;9.60;99.90
11067;DHT22;29763;50.904;5.530;2023-04-01T02:12:03;9.60;99.90
11067;DHT22;29763;50.904;5.530;2023-04-01T02:14:45;9.60;99.90
11067;DHT22;29763;50.904;5.530;2023-04-01T02:17:19;9.60;99.90
11067;DHT22;29763;50.904;5.530;2023-04-01T02:19:52;9.60;99.90
11067;DHT22;29763;50.904;5.530;2023-04-01T02:22:25;9.60;99.90
11067;DHT22;29763;50.904;5.530;2023-04-01T02:24:54;9.50;99.90
11067;DHT22;29763;50.904;5.530;2023-04-01T02:27:23;9.50;99.90
11067;DHT22;29763;50.904;5.530;2023-04-01T02:29:50;9.50;99.90
11067;DHT22;29763;50.904;5.530;2023-04-01T02:32:18;9.50;99.90
11067;DHT22;29763;50.904;5.530;2023-04-01T02:34:45;9.50;99.90
11067;DHT22;29763;50.904;5.530;2023-04-01T02:37:12;9.50;99.90
11067;DHT22;29763;50.904;5.530;2023-04-01T02:39:38;9.50;99.90
11067;DHT22;29763;50.904;5.530;2023-04-01T02:42:04;9.50;99.90
11067;DHT22;29763;50.904;5.530;2023-04-01T02:44:30;9.50;99.90
11067;DHT22;29763;50.904;5.530;2023-04-01T02:46:56;9.50;99.90
11067;DHT22;29763;50.904;5.530;2023-04-01T02:49:22;9.50;99.90
11067;DHT22;29763;50.904;5.530;2023-04-01T02:51:47;9.40;99.90
11067;DHT22;29763;50.904;5.530;2023-04-01T02:54:14;9.50;99.90
11067;DHT22;29763;50.904;5.530;2023-04-01T02:56:40;9.50;99.90
11067;DHT22;29763;50.904;5.530;2023-04-01T02:59:06;9.50;99.90
11067;DHT22;29763;50.904;5.530;2023-04-01T03:01:31;9.50;99.90
11067;DHT22;29763;50.904;5.530;2023-04-01T03:03:57;9.50;99.90
11067;DHT22;29763;50.904;5.530;2023-04-01T03:06:23;9.50;99.90
11067;DHT22;29763;50.904;5.530;2023-04-01T03:08:48;9.50;99.90
11067;DHT22;29763;50.904;5.530;2023-04-01T03:11:14;9.50;99.90
11067;DHT22;29763;50.904;5.530;2023-04-01T03:13:40;9.50;99.90
11067;DHT22;29763;50.904;5.530;2023-04-01T03:16:06;9.50;99.90
11067;DHT22;29763;50.904;5.530;2023-04-01T03:18:34;9.50;99.90
11067;DHT22;29763;50.904;5.530;2023-04-01T03:21:18;9.60;99.90
11067;DHT22;29763;50.904;5.530;2023-04-01T03:23:44;9.60;99.90
11067;DHT22;29763;50.904;5.530;2023-04-01T03:26:10;9.50;99.90
11067;DHT22;29763;50.904;5.530;2023-04-01T03:28:36;9.60;99.90
11067;DHT22;29763;50.904;5.530;2023-04-01T03:31:02;9.50;99.90
11067;DHT22;29763;50.904;5.530;2023-04-01T03:33:28;9.50;99.90
11067;DHT22;29763;50.904;5.530;2023-04-01T03:35:54;9.50;99.90
11067;DHT22;29763;50.904;5.530;2023-04-01T03:38:20;9.50;99.90
11067;DHT22;29763;50.904;5.530;2023-04-01T03:40:45;9.50;99.90
11067;DHT22;29763;50.904;5.530;2023-04-01T03:43:11;9.50;99.90
11067;DHT22;29763;50.904;5.530;2023-04-01T03:45:48;9.50;99.90
11067;DHT22;29763;50.904;5.530;2023-04-01T03:48:15;9.50;99.90
11067;DHT22;29763;50.904;5.530;2023-04-01T03:50:41;9.50;99.90
11067;DHT22;29763;50.904;5.530;2023-04-01T03:53:07;9.40;99.90
11067;DHT22;29763;50.904;5.530;2023-04-01T03:55:35;9.50;99.90
11067;DHT22;29763;50.904;5.530;2023-04-01T03:58:01;9.40;99.90
11067;DHT22;29763;50.904;5.530;2023-04-01T04:00:29;9.40;99.90
11067;DHT22;29763;50.904;5.530;2023-04-01T04:02:55;9.40;99.90
11067;DHT22;29763;50.904;5.530;2023-04-01T04:05:23;9.40;99.90
11067;DHT22;29763;50.904;5.530;2023-04-01T04:07:49;9.40;99.90
11067;DHT22;29763;50.904;5.530;2023-04-01T04:10:15;9.40;99.90
11067;DHT22;29763;50.904;5.530;2023-04-01T04:12:43;9.40;99.90
11067;DHT22;29763;50.904;5.530;2023-04-01T04:15:10;9.50;99.90
11067;DHT22;29763;50.904;5.530;2023-04-01T04:17:36;9.50;99.90
11067;DHT22;29763;50.904;5.530;2023-04-01T04:20:02;9.50;99.90
11067;DHT22;29763;50.904;5.530;2023-04-01T04:22:28;9.40;99.90
11067;DHT22;29763;50.904;5.530;2023-04-01T04:24:54;9.40;99.90
11067;DHT22;29763;50.904;5.530;2023-04-01T04:27:20;9.40;99.90
11067;DHT22;29763;50.904;5.530;2023-04-01T04:29:45;9.40;99.90
11067;DHT22;29763;50.904;5.530;2023-04-01T04:32:11;9.40;99.90
11067;DHT22;29763;50.904;5.530;2023-04-01T04:34:37;9.30;99.90
11067;DHT22;29763;50.904;5.530;2023-04-01T04:37:03;9.40;99.90
11067;DHT22;29763;50.904;5.530;2023-04-01T04:39:29;9.40;99.90
11067;DHT22;29763;50.904;5.530;2023-04-01T04:41:55;9.40;99.90
11067;DHT22;29763;50.904;5.530;2023-04-01T04:44:21;9.40;99.90
11067;DHT22;29763;50.904;5.530;2023-04-01T04:46:47;9.50;99.90
11067;DHT22;29763;50.904;5.530;2023-04-01T04:49:13;9.40;99.90
11067;DHT22;29763;50.904;5.530;2023-04-01T04:51:39;9.40;99.90
11067;DHT22;29763;50.904;5.530;2023-04-01T04:54:06;9.30;99.90
11067;DHT22;29763;50.904;5.530;2023-04-01T04:56:32;9.30;99.90
11067;DHT22;29763;50.904;5.530;2023-04-01T04:58:59;9.30;99.90
11067;DHT22;29763;50.904;5.530;2023-04-01T05:01:25;9.30;99.90
11067;DHT22;29763;50.904;5.530;2023-04-01T05:03:50;9.20;99.90
11067;DHT22;29763;50.904;5.530;2023-04-01T05:06:17;9.20;99.90
11067;DHT22;29763;50.904;5.530;2023-04-01T05:08:44;9.20;99.90
11067;DHT22;29763;50.904;5.530;2023-04-01T05:11:13;9.20;99.90
11067;DHT22;29763;50.904;5.530;2023-04-01T05:13:40;9.20;99.90
11067;DHT22;29763;50.904;5.530;2023-04-01T05:16:11;9.20;99.90
11067;DHT22;29763;50.904;5.530;2023-04-01T05:18:38;9.20;99.90
11067;DHT22;29763;50.904;5.530;2023-04-01T05:21:04;9.20;99.90
11067;DHT22;29763;50.904;5.530;2023-04-01T05:23:32;9.20;99.90
11067;DHT22;29763;50.904;5.530;2023-04-01T05:25:58;9.20;99.90
11067;DHT22;29763;50.904;5.530;2023-04-01T05:28:24;9.20;99.90
11067;DHT22;29763;50.904;5.530;2023-04-01T05:30:50;9.20;99.90
11067;DHT22;29763;50.904;5.530;2023-04-01T05:33:16;9.20;99.90
11067;DHT22;29763;50.904;5.530;2023-04-01T05:35:42;9.20;99.90
11067;DHT22;29763;50.904;5.530;2023-04-01T05:38:08;9.20;99.90
11067;DHT22;29763;50.904;5.530;2023-04-01T05:40:34;9.20;99.90
11067;DHT22;29763;50.904;5.530;2023-04-01T05:43:00;9.30;99.90
11067;DHT22;29763;50.904;5.530;2023-04-01T05:45:26;9.30;99.90
11067;DHT22;29763;50.904;5.530;2023-04-01T05:47:52;9.20;99.90
11067;DHT22;29763;50.904;5.530;2023-04-01T05:50:18;9.20;99.90
11067;DHT22;29763;50.904;5.530;2023-04-01T05:52:44;9.20;99.90
11067;DHT22;29763;50.904;5.530;2023-04-01T05:55:10;9.20;99.90
11067;DHT22;29763;50.904;5.530;2023-04-01T05:57:36;9.20;99.90
11067;DHT22;29763;50.904;5.530;2023-04-01T06:00:03;9.20;99.90
11067;DHT22;29763;50.904;5.530;2023-04-01T06:02:29;9.30;99.90
11067;DHT22;29763;50.904;5.530;2023-04-01T06:07:40;9.30;99.90
11067;DHT22;29763;50.904;5.530;2023-04-01T06:10:17;9.30;99.90
11067;DHT22;29763;50.904;5.530;2023-04-01T06:12:51;9.30;99.90
11067;DHT22;29763;50.904;5.530;2023-04-01T06:26:33;9.30;99.90
11067;DHT22;29763;50.904;5.530;2023-04-01T06:35:07;9.30;99.90
11067;DHT22;29763;50.904;5.530;2023-04-01T06:43:45;9.30;99.90
11067;DHT22;29763;50.904;5.530;2023-04-01T06:47:07;9.30;99.90
11067;DHT22;29763;50.904;5.530;2023-04-01T06:54:42;9.30;99.90
11067;DHT22;29763;50.904;5.530;2023-04-01T06:57:33;9.40;99.90
11067;DHT22;29763;50.904;5.530;2023-04-01T07:00:05;9.30;99.90
11067;DHT22;29763;50.904;5.530;2023-04-01T07:03:06;9.40;99.90
11067;DHT22;29763;50.904;5.530;2023-04-01T07:05:36;9.40;99.90
11067;DHT22;29763;50.904;5.530;2023-04-01T07:08:05;9.40;99.90
11067;DHT22;29763;50.904;5.530;2023-04-01T07:13:18;9.40;99.90
11067;DHT22;29763;50.904;5.530;2023-04-01T07:21:13;9.40;99.90
11067;DHT22;29763;50.904;5.530;2023-04-01T07:23:44;9.40;99.90
11067;DHT22;29763;50.904;5.530;2023-04-01T07:26:23;9.50;99.90
11067;DHT22;29763;50.904;5.530;2023-04-01T07:28:52;9.50;99.90
11067;DHT22;29763;50.904;5.530;2023-04-01T07:31:20;9.50;99.90
11067;DHT22;29763;50.904;5.530;2023-04-01T07:36:33;9.50;99.90
11067;DHT22;29763;50.904;5.530;2023-04-01T07:39:25;9.60;99.90
11067;DHT22;29763;50.904;5.530;2023-04-01T07:42:15;9.50;99.90
11067;DHT22;29763;50.904;5.530;2023-04-01T07:44:54;9.50;99.90
11067;DHT22;29763;50.904;5.530;2023-04-01T07:50:11;9.50;99.90
11067;DHT22;29763;50.904;5.530;2023-04-01T07:55:37;9.50;99.90
11067;DHT22;29763;50.904;5.530;2023-04-01T07:58:35;9.50;99.90
11067;DHT22;29763;50.904;5.530;2023-04-01T08:03:54;9.60;99.90
11067;DHT22;29763;50.904;5.530;2023-04-01T08:11:54;9.60;99.90
11067;DHT22;29763;50.904;5.530;2023-04-01T08:17:16;9.60;99.90
11067;DHT22;29763;50.904;5.530;2023-04-01T08:20:34;9.60;99.90
11067;DHT22;29763;50.904;5.530;2023-04-01T08:25:39;9.50;99.90
11067;DHT22;29763;50.904;5.530;2023-04-01T08:28:38;9.60;99.90
11067;DHT22;29763;50.904;5.530;2023-04-01T08:31:37;9.60;99.90
11067;DHT22;29763;50.904;5.530;2023-04-01T08:34:13;9.60;99.90
11067;DHT22;29763;50.904;5.530;2023-04-01T08:36:51;9.70;99.90
11067;DHT22;29763;50.904;5.530;2023-04-01T08:39:25;9.60;99.90
11067;DHT22;29763;50.904;5.530;2023-04-01T08:48:04;9.70;99.90
11067;DHT22;29763;50.904;5.530;2023-04-01T08:53:39;9.80;99.90
11067;DHT22;29763;50.904;5.530;2023-04-01T08:56:23;9.80;99.90
11067;DHT22;29763;50.904;5.530;2023-04-01T09:04:32;9.90;99.90
11067;DHT22;29763;50.904;5.530;2023-04-01T09:10:23;10.00;99.90
11067;DHT22;29763;50.904;5.530;2023-04-01T09:26:56;10.20;99.90
11067;DHT22;29763;50.904;5.530;2023-04-01T09:43:27;10.30;99.90
11067;DHT22;29763;50.904;5.530;2023-04-01T09:46:12;10.30;99.90
11067;DHT22;29763;50.904;5.530;2023-04-01T09:49:08;10.40;99.90
11067;DHT22;29763;50.904;5.530;2023-04-01T09:57:55;10.40;99.90
11067;DHT22;29763;50.904;5.530;2023-04-01T10:17:26;10.70;99.90
11067;DHT22;29763;50.904;5.530;2023-04-01T10:20:12;10.70;99.90
11067;DHT22;29763;50.904;5.530;2023-04-01T10:30:59;10.70;99.90
11067;DHT22;29763;50.904;5.530;2023-04-01T10:42:19;10.70;99.90
11067;DHT22;29763;50.904;5.530;2023-04-01T10:45:20;10.80;99.90
11067;DHT22;29763;50.904;5.530;2023-04-01T10:48:21;10.80;99.90
11067;DHT22;29763;50.904;5.530;2023-04-01T11:19:59;10.80;99.90
11067;DHT22;29763;50.904;5.530;2023-04-01T11:28:32;10.60;99.90
11067;DHT22;29763;50.904;5.530;2023-04-01T11:31:19;10.70;99.90
11067;DHT22;29763;50.904;5.530;2023-04-01T11:34:20;10.80;99.90
11067;DHT22;29763;50.904;5.530;2023-04-01T11:48:07;11.00;99.90
11067;DHT22;29763;50.904;5.530;2023-04-01T11:50:56;10.90;99.90
11067;DHT22;29763;50.904;5.530;2023-04-01T11:57:10;11.00;99.90
11067;DHT22;29763;50.904;5.530;2023-04-01T12:10:46;11.10;99.90
11067;DHT22;29763;50.904;5.530;2023-04-01T12:18:54;11.20;99.90
11067;DHT22;29763;50.904;5.530;2023-04-01T12:27:45;11.00;99.90
11067;DHT22;29763;50.904;5.530;2023-04-01T12:37:10;11.10;99.90
11067;DHT22;29763;50.904;5.530;2023-04-01T12:39:56;11.10;99.90
11067;DHT22;29763;50.904;5.530;2023-04-01T13:02:12;11.20;99.90
11067;DHT22;29763;50.904;5.530;2023-04-01T13:16:29;11.30;99.90
11067;DHT22;29763;50.904;5.530;2023-04-01T13:35:04;11.00;99.90
11067;DHT22;29763;50.904;5.530;2023-04-01T13:37:41;11.00;99.90
11067;DHT22;29763;50.904;5.530;2023-04-01T13:46:47;11.30;99.90
11067;DHT22;29763;50.904;5.530;2023-04-01T14:00:19;11.00;99.90
11067;DHT22;29763;50.904;5.530;2023-04-01T14:22:10;11.30;99.90
11067;DHT22;29763;50.904;5.530;2023-04-01T14:30:16;11.60;99.90
11067;DHT22;29763;50.904;5.530;2023-04-01T14:43:28;11.90;99.90
11067;DHT22;29763;50.904;5.530;2023-04-01T14:49:05;11.80;99.90
11067;DHT22;29763;50.904;5.530;2023-04-01T14:51:40;11.70;99.90
11067;DHT22;29763;50.904;5.530;2023-04-01T14:54:14;11.40;99.90
11067;DHT22;29763;50.904;5.530;2023-04-01T14:59:25;11.30;99.90
11067;DHT22;29763;50.904;5.530;2023-04-01T15:23:51;10.80;99.90
11067;DHT22;29763;50.904;5.530;2023-04-01T15:31:49;10.60;99.90
11067;DHT22;29763;50.904;5.530;2023-04-01T15:34:44;10.60;99.90
11067;DHT22;29763;50.904;5.530;2023-04-01T15:51:11;10.80;99.90
11067;DHT22;29763;50.904;5.530;2023-04-01T15:53:51;10.90;99.90
11067;DHT22;29763;50.904;5.530;2023-04-01T15:56:26;10.90;99.90
11067;DHT22;29763;50.904;5.530;2023-04-01T16:10:08;10.80;99.90
11067;DHT22;29763;50.904;5.530;2023-04-01T16:21:00;10.80;99.90
11067;DHT22;29763;50.904;5.530;2023-04-01T16:23:48;10.90;99.90
11067;DHT22;29763;50.904;5.530;2023-04-01T16:29:22;10.70;99.90
11067;DHT22;29763;50.904;5.530;2023-04-01T16:37:39;10.40;99.90
11067;DHT22;29763;50.904;5.530;2023-04-01T16:40:34;10.40;99.90
11067;DHT22;29763;50.904;5.530;2023-04-01T16:43:11;10.40;99.90
11067;DHT22;29763;50.904;5.530;2023-04-01T16:48:51;10.30;99.90
11067;DHT22;29763;50.904;5.530;2023-04-01T16:51:20;10.30;99.90
11067;DHT22;29763;50.904;5.530;2023-04-01T16:57:02;10.20;99.90
11067;DHT22;29763;50.904;5.530;2023-04-01T17:02:16;10.20;99.90
11067;DHT22;29763;50.904;5.530;2023-04-01T17:05:04;10.20;99.90
11067;DHT22;29763;50.904;5.530;2023-04-01T17:10:28;10.10;99.90
11067;DHT22;29763;50.904;5.530;2023-04-01T17:23:43;9.80;99.90
11067;DHT22;29763;50.904;5.530;2023-04-01T17:26:20;9.80;99.90
11067;DHT22;29763;50.904;5.530;2023-04-01T17:45:21;9.60;99.90
11067;DHT22;29763;50.904;5.530;2023-04-01T17:53:43;9.50;99.90
11067;DHT22;29763;50.904;5.530;2023-04-01T18:07:58;9.40;99.90
11067;DHT22;29763;50.904;5.530;2023-04-01T18:13:46;9.40;99.90
11067;DHT22;29763;50.904;5.530;2023-04-01T18:16:20;9.40;99.90
11067;DHT22;29763;50.904;5.530;2023-04-01T18:26:42;9.30;99.90
11067;DHT22;29763;50.904;5.530;2023-04-01T18:38:20;9.30;99.90
11067;DHT22;29763;50.904;5.530;2023-04-01T18:41:02;9.30;99.90
11067;DHT22;29763;50.904;5.530;2023-04-01T18:46:36;9.30;99.90
11067;DHT22;29763;50.904;5.530;2023-04-01T18:49:10;9.30;99.90
11067;DHT22;29763;50.904;5.530;2023-04-01T18:51:44;9.30;99.90
11067;DHT22;29763;50.904;5.530;2023-04-01T18:54:33;9.30;99.90
11067;DHT22;29763;50.904;5.530;2023-04-01T18:57:16;9.20;99.90
11067;DHT22;29763;50.904;5.530;2023-04-01T18:59:52;9.20;99.90
11067;DHT22;29763;50.904;5.530;2023-04-01T19:02:48;9.30;99.90
11067;DHT22;29763;50.904;5.530;2023-04-01T19:05:33;9.30;99.90
11067;DHT22;29763;50.904;5.530;2023-04-01T19:10:48;9.30;99.90
11067;DHT22;29763;50.904;5.530;2023-04-01T19:19:51;9.30;99.90
11067;DHT22;29763;50.904;5.530;2023-04-01T19:25:22;9.20;99.90
11067;DHT22;29763;50.904;5.530;2023-04-01T19:27:52;9.20;99.90
11067;DHT22;29763;50.904;5.530;2023-04-01T19:30:31;9.20;99.90
11067;DHT22;29763;50.904;5.530;2023-04-01T19:36:18;9.30;99.90
11067;DHT22;29763;50.904;5.530;2023-04-01T19:50:39;9.30;99.90
11067;DHT22;29763;50.904;5.530;2023-04-01T19:53:31;9.20;99.90
11067;DHT22;29763;50.904;5.530;2023-04-01T20:01:30;9.30;99.90
11067;DHT22;29763;50.904;5.530;2023-04-01T20:10:16;9.30;99.90
11067;DHT22;29763;50.904;5.530;2023-04-01T20:16:08;9.30;99.90
11067;DHT22;29763;50.904;5.530;2023-04-01T20:19:02;9.30;99.90
11067;DHT22;29763;50.904;5.530;2023-04-01T20:22:10;9.30;99.90
11067;DHT22;29763;50.904;5.530;2023-04-01T20:24:56;9.30;99.90
11067;DHT22;29763;50.904;5.530;2023-04-01T20:33:32;9.40;99.90
11067;DHT22;29763;50.904;5.530;2023-04-01T20:37:09;9.40;99.90
11067;DHT22;29763;50.904;5.530;2023-04-01T20:45:14;9.50;99.90
11067;DHT22;29763;50.904;5.530;2023-04-01T20:48:02;9.40;99.90
11067;DHT22;29763;50.904;5.530;2023-04-01T20:51:14;9.50;99.90
11067;DHT22;29763;50.904;5.530;2023-04-01T20:53:37;9.50;99.90
11067;DHT22;29763;50.904;5.530;2023-04-01T20:56:13;9.50;99.90
11067;DHT22;29763;50.904;5.530;2023-04-01T21:01:47;9.50;99.90
11067;DHT22;29763;50.904;5.530;2023-04-01T21:07:29;9.60;99.90
11067;DHT22;29763;50.904;5.530;2023-04-01T21:13:02;9.60;99.90
11067;DHT22;29763;50.904;5.530;2023-04-01T21:15:56;9.60;99.90
11067;DHT22;29763;50.904;5.530;2023-04-01T21:18:53;9.60;99.90
11067;DHT22;29763;50.904;5.530;2023-04-01T21:21:54;9.60;99.90
11067;DHT22;29763;50.904;5.530;2023-04-01T21:24:42;9.60;99.90
11067;DHT22;29763;50.904;5.530;2023-04-01T21:30:05;9.60;99.90
11067;DHT22;29763;50.904;5.530;2023-04-01T21:32:46;9.60;99.90
11067;DHT22;29763;50.904;5.530;2023-04-01T21:38:34;9.60;99.90
11067;DHT22;29763;50.904;5.530;2023-04-01T21:44:15;9.60;99.90
11067;DHT22;29763;50.904;5.530;2023-04-01T22:00:31;9.60;99.90
11067;DHT22;29763;50.904;5.530;2023-04-01T22:11:34;9.50;99.90
11067;DHT22;29763;50.904;5.530;2023-04-01T22:14:11;9.50;99.90
11067;DHT22;29763;50.904;5.530;2023-04-01T22:16:56;9.50;99.90
11067;DHT22;29763;50.904;5.530;2023-04-01T22:22:28;9.40;99.90
11067;DHT22;29763;50.904;5.530;2023-04-01T22:25:17;9.40;99.90
11067;DHT22;29763;50.904;5.530;2023-04-01T22:30:52;9.20;99.90
11067;DHT22;29763;50.904;5.530;2023-04-01T22:44:02;9.10;99.90
11067;DHT22;29763;50.904;5.530;2023-04-01T22:49:26;9.00;99.90
11067;DHT22;29763;50.904;5.530;2023-04-01T22:52:05;9.00;99.90
11067;DHT22;29763;50.904;5.530;2023-04-01T22:54:44;9.00;99.90
11067;DHT22;29763;50.904;5.530;2023-04-01T22:57:40;8.90;99.90
11067;DHT22;29763;50.904;5.530;2023-04-01T23:03:27;8.90;99.90
11067;DHT22;29763;50.904;5.530;2023-04-01T23:05:36;8.80;99.90
11067;DHT22;29763;50.904;5.530;2023-04-01T23:10:43;8.80;99.90
11067;DHT22;29763;50.904;5.530;2023-04-01T23:13:22;8.90;99.90
11067;DHT22;29763;50.904;5.530;2023-04-01T23:15:54;8.80;99.90
11067;DHT22;29763;50.904;5.530;2023-04-01T23:21:18;8.80;99.90
11067;DHT22;29763;50.904;5.530;2023-04-01T23:26:39;8.80;99.90
11067;DHT22;29763;50.904;5.530;2023-04-01T23:29:14;8.80;99.90
11067;DHT22;29763;50.904;5.530;2023-04-01T23:31:46;8.80;99.90
11067;DHT22;29763;50.904;5.530;2023-04-01T23:34:24;8.70;99.90
11067;DHT22;29763;50.904;5.530;2023-04-01T23:36:58;8.70;99.90
11067;DHT22;29763;50.904;5.530;2023-04-01T23:39:36;8.70;99.90
11067;DHT22;29763;50.904;5.530;2023-04-01T23:42:17;8.70;99.90
11067;DHT22;29763;50.904;5.530;2023-04-01T23:44:45;8.70;99.90
11067;DHT22;29763;50.904;5.530;2023-04-01T23:47:21;8.60;99.90
11067;DHT22;29763;50.904;5.530;2023-04-01T23:50:11;8.50;99.90
11067;DHT22;29763;50.904;5.530;2023-04-01T23:52:58;8.50;99.90
11067;DHT22;29763;50.904;5.530;2023-04-01T23:55:31;8.40;99.90
11067;DHT22;29763;50.904;5.530;2023-04-01T23:58:05;8.40;99.90
